createdAt,value
2019-03-25T06:32:51.151Z,1006.22
2019-03-25T06:33:51.043Z,1006.22
2019-03-25T06:34:50.934Z,1006.26
2019-03-25T06:35:50.827Z,1006.25
2019-03-25T06:36:50.721Z,1006.03
2019-03-25T06:37:50.610Z,1006.05
2019-03-25T06:38:50.529Z,1005.89
2019-03-25T06:39:50.451Z,1005.87
2019-03-25T06:40:50.289Z,1005.83
2019-03-25T06:41:50.181Z,1005.78
2019-03-25T06:42:50.072Z,1005.91
2019-03-25T06:43:49.964Z,1005.98
2019-03-25T06:44:49.860Z,1006.03
2019-03-25T06:45:49.750Z,1006.09
2019-03-25T06:46:49.640Z,1006.11
2019-03-25T06:47:49.533Z,1006.03
2019-03-25T06:48:49.425Z,1006.06
2019-03-25T06:49:49.317Z,1006.10
2019-03-25T06:50:49.207Z,1006.14
2019-03-25T06:51:49.101Z,1006.17
2019-03-25T06:52:48.991Z,1006.08
2019-03-25T06:53:48.881Z,1006.19
2019-03-25T06:54:48.775Z,1006.10
2019-03-25T13:08:09.430Z,1008.39
2019-03-25T13:09:09.324Z,1008.33
2019-03-25T13:10:09.220Z,1008.31
2019-03-25T13:11:09.116Z,1008.30
2019-03-25T13:12:09.013Z,1008.26
2019-03-25T13:13:08.906Z,1008.26
2019-03-25T13:14:08.800Z,1008.29
2019-03-25T13:15:08.698Z,1008.25
2019-03-25T13:16:08.596Z,1008.22
2019-03-25T13:17:08.489Z,1008.20
2019-03-25T13:18:08.385Z,1008.17
2019-03-25T13:19:08.279Z,1008.18
2019-03-25T13:20:08.176Z,1008.18
2019-03-25T13:21:08.074Z,1008.14
2019-03-25T13:22:08.034Z,1008.21
2019-03-25T13:23:07.861Z,1008.17
2019-03-25T13:24:07.759Z,1008.19
2019-03-25T13:25:07.656Z,1008.24
2019-03-25T13:26:07.550Z,1008.21
2019-03-25T13:27:07.446Z,1008.23
2019-03-25T13:28:07.338Z,1008.29
2019-03-25T13:29:07.235Z,1008.27
2019-03-25T13:30:07.130Z,1008.29
2019-03-25T13:31:07.025Z,1008.31
2019-03-25T13:32:06.919Z,1008.36
2019-03-25T13:33:06.815Z,1008.39
2019-03-25T13:34:06.712Z,1008.40
2019-03-25T13:35:06.609Z,1008.49
2019-03-25T13:36:06.504Z,1008.51
2019-03-25T13:37:06.400Z,1008.57
2019-03-25T13:38:06.294Z,1008.59
2019-03-25T13:39:06.191Z,1008.56
2019-03-25T13:40:06.084Z,1008.57
2019-03-25T13:41:06.009Z,1008.56
2019-03-25T13:42:05.944Z,1008.60
2019-03-25T13:43:05.776Z,1008.60
2019-03-25T13:44:05.676Z,1008.64
2019-03-25T13:45:05.568Z,1008.74
2019-03-25T13:46:05.946Z,1008.74
2019-03-25T13:47:05.360Z,1008.77
2019-03-25T13:48:05.257Z,1008.84
2019-03-25T13:49:05.152Z,1008.91
2019-03-25T13:50:05.049Z,1008.88
2019-03-25T13:51:04.957Z,1009.01
2019-03-25T13:52:04.840Z,1008.94
2019-03-25T13:53:04.736Z,1008.98
2019-03-25T13:54:06.861Z,1008.99
2019-03-25T13:55:04.529Z,1009.10
2019-03-25T13:56:04.426Z,1009.10
2019-03-25T13:57:04.330Z,1009.11
2019-03-25T13:58:04.216Z,1009.12
2019-03-25T13:59:04.113Z,1009.14
2019-03-25T14:00:04.116Z,1009.12
2019-03-25T14:01:03.965Z,1009.17
2019-03-25T14:02:03.829Z,1009.15
2019-03-25T14:03:03.702Z,1009.15
2019-03-25T14:04:03.592Z,1009.16
2019-03-25T14:05:03.489Z,1009.15
2019-03-25T14:06:03.384Z,1009.19
2019-03-25T14:07:04.027Z,1009.16
2019-03-25T14:08:03.179Z,1009.17
2019-03-25T14:09:03.129Z,1009.19
2019-03-25T14:10:02.988Z,1009.28
2019-03-25T14:11:02.864Z,1009.22
2019-03-25T14:12:02.759Z,1009.26
2019-03-25T14:13:02.659Z,1009.29
2019-03-25T14:14:02.551Z,1009.27
2019-03-25T14:15:02.446Z,1009.22
2019-03-25T14:16:02.342Z,1009.24
2019-03-25T14:17:02.239Z,1009.23
2019-03-25T14:18:02.133Z,1009.24
2019-03-25T14:19:02.029Z,1009.20
2019-03-25T14:20:01.957Z,1009.21
2019-03-25T14:21:01.904Z,1009.20
2019-03-25T14:22:01.716Z,1009.24
2019-03-25T14:23:01.615Z,1009.23
2019-03-25T14:24:01.509Z,1009.27
2019-03-25T14:25:01.409Z,1009.29
2019-03-25T14:26:01.300Z,1009.26
2019-03-25T14:27:01.200Z,1009.28
2019-03-25T14:28:01.090Z,1009.29
2019-03-25T14:29:00.989Z,1009.29
2019-03-25T14:30:00.886Z,1009.30
2019-03-25T14:31:00.781Z,1009.34
2019-03-25T14:32:00.675Z,1009.34
2019-03-25T14:33:00.574Z,1009.36
2019-03-25T14:34:00.467Z,1009.35
2019-03-25T14:35:00.440Z,1009.36
2019-03-25T14:36:00.258Z,1009.35
2019-03-25T14:37:00.156Z,1009.39
2019-03-25T14:38:00.049Z,1009.34
2019-03-25T14:38:59.945Z,1009.33
2019-03-25T14:39:59.867Z,1009.29
2019-03-25T14:40:59.737Z,1009.31
2019-03-25T14:41:59.634Z,1009.31
2019-03-25T14:42:59.530Z,1009.35
2019-03-25T14:43:59.425Z,1009.34
2019-03-25T14:44:59.324Z,1009.38
2019-03-25T14:45:59.217Z,1009.38
2019-03-25T14:46:59.114Z,1009.38
2019-03-25T14:47:59.028Z,1009.42
2019-03-25T14:48:58.904Z,1009.40
2019-03-25T14:49:58.800Z,1009.42
2019-03-25T14:50:58.696Z,1009.48
2019-03-25T14:51:58.593Z,1009.41
2019-03-25T14:52:58.488Z,1009.46
2019-03-25T14:53:58.385Z,1009.46
2019-03-25T14:54:58.281Z,1009.51
2019-03-25T14:55:58.178Z,1009.49
2019-03-25T14:56:58.071Z,1009.50
2019-03-25T14:57:57.971Z,1009.58
2019-03-25T14:58:57.908Z,1009.61
2019-03-25T14:59:57.791Z,1009.55
2019-03-25T15:00:57.662Z,1009.61
2019-03-25T15:01:57.553Z,1009.67
2019-03-25T15:02:57.453Z,1009.69
2019-03-25T15:03:57.347Z,1009.73
2019-03-25T15:04:57.243Z,1009.77
2019-03-25T15:05:57.137Z,1009.76
2019-03-25T15:06:57.034Z,1009.74
2019-03-25T15:07:56.931Z,1009.75
2019-03-25T15:08:56.830Z,1009.72
2019-03-25T15:09:56.723Z,1009.72
2019-03-25T15:10:56.619Z,1009.76
2019-03-25T15:11:56.514Z,1009.76
2019-03-25T15:12:56.413Z,1009.75
2019-03-25T15:13:56.307Z,1009.74
2019-03-25T15:14:56.202Z,1009.75
2019-03-25T15:15:56.100Z,1009.73
2019-03-25T15:16:55.995Z,1009.74
2019-03-25T15:17:55.904Z,1009.74
2019-03-25T15:18:55.827Z,1009.82
2019-03-25T15:19:55.681Z,1009.77
2019-03-25T15:20:55.576Z,1009.82
2019-03-25T15:21:55.472Z,1009.83
2019-03-25T15:22:55.365Z,1009.88
2019-03-25T15:23:55.263Z,1009.88
2019-03-25T15:24:55.159Z,1009.84
2019-03-25T15:25:55.053Z,1009.86
2019-03-25T15:26:54.950Z,1009.92
2019-03-25T15:27:54.844Z,1009.91
2019-03-25T15:28:54.741Z,1009.91
2019-03-25T15:29:54.637Z,1009.96
2019-03-25T15:30:54.530Z,1009.94
2019-03-25T15:31:54.426Z,1009.99
2019-03-25T15:32:54.323Z,1009.98
2019-03-25T15:33:54.217Z,1009.98
2019-03-25T15:34:54.113Z,1009.96
2019-03-25T15:35:54.008Z,1009.96
2019-03-25T15:36:53.905Z,1010.00
2019-03-25T15:37:53.866Z,1009.97
2019-03-25T15:38:53.698Z,1010.00
2019-03-25T15:39:53.592Z,1010.00
2019-03-25T15:40:53.488Z,1010.05
2019-03-25T15:41:53.382Z,1010.10
2019-03-25T15:42:53.291Z,1010.10
2019-03-25T15:43:53.175Z,1010.11
2019-03-25T15:44:53.072Z,1010.07
2019-03-25T15:45:52.975Z,1010.06
2019-03-25T15:46:55.838Z,1010.07
2019-03-25T15:47:52.759Z,1010.11
2019-03-25T15:48:52.654Z,1010.12
2019-03-25T15:49:52.549Z,1010.18
2019-03-25T15:50:52.448Z,1010.17
2019-03-25T15:51:52.339Z,1010.19
2019-03-25T15:52:52.240Z,1010.21
2019-03-25T15:53:52.132Z,1010.25
2019-03-25T15:54:52.029Z,1010.23
2019-03-25T15:55:51.926Z,1010.27
2019-03-25T15:56:51.859Z,1010.29
2019-03-25T15:57:51.791Z,1010.32
2019-03-25T15:58:51.614Z,1010.40
2019-03-25T15:59:51.510Z,1010.37
2019-03-25T16:00:51.411Z,1010.35
2019-03-25T16:01:51.301Z,1010.42
2019-03-25T16:02:51.194Z,1010.42
2019-03-25T16:03:51.091Z,1010.45
2019-03-25T16:04:50.992Z,1010.47
2019-03-25T16:05:50.882Z,1010.45
2019-03-25T16:06:50.778Z,1010.53
2019-03-25T16:07:50.677Z,1010.49
2019-03-25T16:08:50.571Z,1010.51
2019-03-25T16:09:50.468Z,1010.58
2019-03-25T16:10:51.812Z,1010.59
2019-03-25T16:11:50.260Z,1010.59
2019-03-25T16:12:50.154Z,1010.62
2019-03-25T16:13:50.055Z,1010.65
2019-03-25T16:14:49.946Z,1010.64
2019-03-25T16:15:49.838Z,1010.69
2019-03-25T16:16:49.799Z,1010.64
2019-03-25T16:17:49.630Z,1010.68
2019-03-25T16:18:49.527Z,1010.67
2019-03-25T16:19:49.422Z,1010.73
2019-03-25T16:20:49.320Z,1010.74
2019-03-25T16:21:49.213Z,1010.74
2019-03-25T16:22:49.105Z,1010.78
2019-03-25T16:23:49.006Z,1010.80
2019-03-25T16:24:48.898Z,1010.80
2019-03-25T16:25:48.793Z,1010.81
2019-03-25T16:26:48.688Z,1010.88
2019-03-25T16:27:48.585Z,1010.89
2019-03-25T16:28:48.479Z,1010.92
2019-03-25T16:29:48.376Z,1010.89
2019-03-25T16:30:58.276Z,1010.92
2019-03-25T16:31:48.166Z,1010.89
2019-03-25T16:32:48.059Z,1010.84
2019-03-25T16:33:47.956Z,1010.85
2019-03-25T16:34:47.856Z,1010.90
2019-03-25T16:35:47.794Z,1010.87
2019-03-25T16:36:47.728Z,1010.89
2019-03-25T16:37:47.535Z,1010.93
2019-03-25T16:38:47.435Z,1010.86
2019-03-25T16:39:47.330Z,1010.93
2019-03-25T16:40:47.224Z,1010.87
2019-03-25T16:41:47.119Z,1010.95
2019-03-25T16:42:47.012Z,1011.02
2019-03-25T16:43:46.907Z,1011.02
2019-03-25T16:44:46.805Z,1011.05
2019-03-25T16:45:46.695Z,1011.02
2019-03-25T16:46:46.591Z,1011.06
2019-03-25T16:47:46.490Z,1011.13
2019-03-25T16:48:46.385Z,1011.13
2019-03-25T16:49:46.277Z,1011.17
2019-03-25T16:50:46.171Z,1011.20
2019-03-25T16:51:46.069Z,1011.19
2019-03-25T16:52:45.966Z,1011.15
2019-03-25T16:53:45.858Z,1011.17
2019-03-25T16:54:45.772Z,1011.15
2019-03-25T16:55:45.698Z,1011.15
2019-03-25T16:56:45.539Z,1011.25
2019-03-25T16:57:45.437Z,1011.24
2019-03-25T16:58:45.333Z,1011.28
2019-03-25T16:59:45.228Z,1011.25
2019-03-25T17:00:45.122Z,1011.28
2019-03-25T17:01:45.018Z,1011.27
2019-03-25T17:02:44.916Z,1011.28
2019-03-25T17:03:44.808Z,1011.27
2019-03-25T17:04:44.702Z,1011.35
2019-03-25T17:05:44.595Z,1011.33
2019-03-25T17:06:44.492Z,1011.35
2019-03-25T17:07:44.386Z,1011.35
2019-03-25T17:08:44.282Z,1011.39
2019-03-25T17:09:44.176Z,1011.42
2019-03-25T17:10:44.073Z,1011.43
2019-03-25T17:11:43.966Z,1011.45
2019-03-25T17:12:43.862Z,1011.50
2019-03-25T17:13:43.756Z,1011.49
2019-03-25T17:14:43.685Z,1011.48
2019-03-25T17:15:43.545Z,1011.58
2019-03-25T17:16:43.440Z,1011.61
2019-03-25T17:17:43.333Z,1011.60
2019-03-25T17:18:43.229Z,1011.60
2019-03-25T17:19:43.126Z,1011.67
2019-03-25T17:20:43.022Z,1011.70
2019-03-25T17:21:42.914Z,1011.68
2019-03-25T17:22:42.809Z,1011.68
2019-03-25T17:23:42.704Z,1011.72
2019-03-25T17:24:42.600Z,1011.79
2019-03-25T17:25:52.529Z,1011.74
2019-03-25T17:26:42.695Z,1011.80
2019-03-25T17:27:42.285Z,1011.78
2019-03-25T17:28:42.174Z,1011.79
2019-03-25T17:29:42.074Z,1011.78
2019-03-25T17:30:41.964Z,1011.83
2019-03-25T17:31:41.862Z,1011.80
2019-03-25T17:32:41.755Z,1011.83
2019-03-25T17:33:41.724Z,1011.87
2019-03-25T17:34:41.544Z,1011.88
2019-03-25T17:35:41.440Z,1011.94
2019-03-25T17:36:41.337Z,1011.95
2019-03-25T17:37:41.242Z,1011.95
2019-03-25T17:38:41.125Z,1011.96
2019-03-25T17:39:41.018Z,1011.98
2019-03-25T17:40:40.912Z,1012.04
2019-03-25T17:41:40.806Z,1012.04
2019-03-25T17:42:40.701Z,1012.07
2019-03-25T17:43:40.594Z,1012.11
2019-03-25T17:44:40.490Z,1012.10
2019-03-25T17:45:40.381Z,1012.12
2019-03-25T17:46:40.279Z,1012.15
2019-03-25T17:47:40.174Z,1012.16
2019-03-25T17:48:40.069Z,1012.21
2019-03-25T17:49:39.961Z,1012.18
2019-03-25T17:50:39.856Z,1012.22
2019-03-25T17:51:39.750Z,1012.24
2019-03-25T17:52:39.696Z,1012.30
2019-03-25T17:53:39.545Z,1012.30
2019-03-25T17:54:39.433Z,1012.29
2019-03-25T17:55:39.329Z,1012.31
2019-03-25T17:56:39.223Z,1012.36
2019-03-25T17:57:39.120Z,1012.38
2019-03-25T17:58:39.011Z,1012.40
2019-03-25T17:59:38.905Z,1012.41
2019-03-25T18:00:38.799Z,1012.44
2019-03-25T18:01:38.692Z,1012.49
2019-03-25T18:02:38.592Z,1012.45
2019-03-25T18:03:38.485Z,1012.54
2019-03-25T18:04:38.379Z,1012.61
2019-03-25T18:05:38.272Z,1012.60
2019-03-25T18:06:38.182Z,1012.60
2019-03-25T18:07:38.070Z,1012.67
2019-03-25T18:08:37.955Z,1012.70
2019-03-25T18:09:38.156Z,1012.74
2019-03-25T18:10:37.744Z,1012.78
2019-03-25T18:11:37.684Z,1012.77
2019-03-25T18:12:39.106Z,1012.80
2019-03-25T18:13:37.428Z,1012.81
2019-03-25T18:14:37.320Z,1012.90
2019-03-25T18:15:37.216Z,1012.91
2019-03-25T18:16:37.111Z,1012.96
2019-03-25T18:17:37.004Z,1012.98
2019-03-25T18:18:36.898Z,1013.00
2019-03-25T18:19:36.801Z,1012.98
2019-03-25T18:20:36.690Z,1013.05
2019-03-25T18:21:36.609Z,1013.00
2019-03-25T18:22:39.749Z,1013.04
2019-03-25T18:23:36.385Z,1013.02
2019-03-25T18:24:36.267Z,1013.07
2019-03-25T18:25:36.161Z,1013.09
2019-03-25T18:26:36.054Z,1013.13
2019-03-25T18:27:35.951Z,1013.18
2019-03-25T18:28:35.845Z,1013.19
2019-03-25T18:29:35.739Z,1013.17
2019-03-25T18:30:35.649Z,1013.21
2019-03-25T18:31:43.388Z,1013.26
2019-03-25T18:32:35.425Z,1013.24
2019-03-25T18:33:35.316Z,1013.27
2019-03-25T18:34:35.217Z,1013.28
2019-03-25T18:35:35.106Z,1013.37
2019-03-25T18:36:35.002Z,1013.36
2019-03-25T18:37:34.895Z,1013.42
2019-03-25T18:38:34.790Z,1013.45
2019-03-25T18:39:34.684Z,1013.48
2019-03-25T18:40:34.579Z,1013.55
2019-03-25T18:41:34.474Z,1013.52
2019-03-25T18:42:34.368Z,1013.61
2019-03-25T18:43:34.268Z,1013.61
2019-03-25T18:44:34.157Z,1013.60
2019-03-25T18:45:34.053Z,1013.62
2019-03-25T18:46:33.955Z,1013.66
2019-03-25T18:47:33.843Z,1013.66
2019-03-25T18:48:33.740Z,1013.66
2019-03-25T18:49:33.649Z,1013.64
2019-03-25T18:50:33.574Z,1013.66
2019-03-25T18:51:34.962Z,1013.65
2019-03-25T18:52:33.315Z,1013.70
2019-03-25T18:53:33.227Z,1013.70
2019-03-25T18:54:33.108Z,1013.73
2019-03-25T18:55:33.002Z,1013.72
2019-03-25T18:56:32.897Z,1013.73
2019-03-25T18:57:32.800Z,1013.76
2019-03-25T18:58:32.691Z,1013.72
2019-03-25T18:59:32.597Z,1013.73
2019-03-25T19:00:32.474Z,1013.77
2019-03-25T19:01:32.369Z,1013.78
2019-03-25T19:02:32.265Z,1013.79
2019-03-25T19:03:32.159Z,1013.80
2019-03-25T19:04:32.055Z,1013.87
2019-03-25T19:05:31.950Z,1013.84
2019-03-25T19:06:31.860Z,1013.83
2019-03-25T19:07:31.749Z,1013.90
2019-03-25T19:08:31.658Z,1013.88
2019-03-25T19:09:31.603Z,1013.93
2019-03-25T19:10:31.434Z,1013.95
2019-03-25T19:11:31.627Z,1013.90
2019-03-25T19:12:31.235Z,1013.94
2019-03-25T19:13:31.115Z,1013.94
2019-03-25T19:14:31.003Z,1013.90
2019-03-25T19:15:30.900Z,1013.93
2019-03-25T19:16:30.793Z,1013.98
2019-03-25T19:17:30.696Z,1013.97
2019-03-25T19:18:30.587Z,1014.00
2019-03-25T19:19:30.481Z,1013.97
2019-03-25T19:20:30.374Z,1014.03
2019-03-25T19:21:30.266Z,1014.07
2019-03-25T19:22:30.161Z,1014.12
2019-03-25T19:23:30.087Z,1014.12
2019-03-25T19:24:29.950Z,1014.15
2019-03-25T19:25:29.843Z,1014.14
2019-03-25T19:26:29.740Z,1014.18
2019-03-25T19:27:29.655Z,1014.18
2019-03-25T19:28:29.589Z,1014.24
2019-03-25T19:29:29.440Z,1014.28
2019-03-25T19:30:29.335Z,1014.34
2019-03-25T19:31:29.211Z,1014.25
2019-03-25T19:32:29.113Z,1014.27
2019-03-25T19:33:29.000Z,1014.31
2019-03-25T19:34:28.894Z,1014.30
2019-03-25T19:35:30.055Z,1014.29
2019-03-25T19:36:28.700Z,1014.31
2019-03-25T19:37:28.583Z,1014.35
2019-03-25T19:38:28.475Z,1014.37
2019-03-25T19:39:28.364Z,1014.33
2019-03-25T19:40:28.287Z,1014.42
2019-03-25T19:41:32.605Z,1014.41
2019-03-25T19:42:28.049Z,1014.43
2019-03-25T19:43:27.943Z,1014.43
2019-03-25T19:44:27.862Z,1014.48
2019-03-25T19:45:27.729Z,1014.47
2019-03-25T19:46:27.633Z,1014.51
2019-03-25T19:47:27.595Z,1014.54
2019-03-25T19:48:27.507Z,1014.55
2019-03-25T19:49:27.332Z,1014.63
2019-03-25T19:50:27.203Z,1014.62
2019-03-25T19:51:27.209Z,1014.62
2019-03-25T19:52:26.988Z,1014.65
2019-03-25T19:53:26.926Z,1014.68
2019-03-25T19:54:26.779Z,1014.65
2019-03-25T19:55:26.718Z,1014.70
2019-03-25T19:56:26.566Z,1014.71
2019-03-25T19:57:28.318Z,1014.72
2019-03-25T19:58:26.362Z,1014.76
2019-03-25T19:59:26.255Z,1014.74
2019-03-25T20:00:26.145Z,1014.80
2019-03-25T20:01:26.037Z,1014.78
2019-03-25T20:02:25.947Z,1014.80
2019-03-25T20:03:25.880Z,1014.79
2019-03-25T20:04:25.730Z,1014.85
2019-03-25T20:05:25.614Z,1014.85
2019-03-25T20:06:26.346Z,1014.83
2019-03-25T20:07:25.473Z,1014.88
2019-03-25T20:08:25.324Z,1014.91
2019-03-25T20:09:25.188Z,1014.94
2019-03-25T20:10:25.136Z,1015.04
2019-03-25T20:11:24.980Z,1015.01
2019-03-25T20:12:24.939Z,1015.02
2019-03-25T20:13:24.768Z,1014.99
2019-03-25T20:14:24.711Z,1015.00
2019-03-25T20:15:24.572Z,1015.05
2019-03-25T20:16:24.443Z,1015.12
2019-03-25T20:17:24.338Z,1015.09
2019-03-25T20:18:24.233Z,1015.09
2019-03-25T20:19:24.133Z,1015.16
2019-03-25T20:20:24.018Z,1015.18
2019-03-25T20:21:23.953Z,1015.17
2019-03-25T20:22:23.811Z,1015.17
2019-03-25T20:23:23.717Z,1015.24
2019-03-25T20:24:23.657Z,1015.21
2019-03-25T20:25:23.524Z,1015.25
2019-03-25T20:26:23.491Z,1015.22
2019-03-25T20:27:23.277Z,1015.29
2019-03-25T20:28:23.182Z,1015.28
2019-03-25T20:29:23.071Z,1015.25
2019-03-25T20:30:22.985Z,1015.27
2019-03-25T20:31:22.854Z,1015.30
2019-03-25T20:32:31.566Z,1015.31
2019-03-25T20:33:22.666Z,1015.31
2019-03-25T20:34:22.532Z,1015.36
2019-03-25T20:35:22.428Z,1015.37
2019-03-25T20:36:22.318Z,1015.32
2019-03-25T20:37:22.237Z,1015.35
2019-03-25T20:38:22.107Z,1015.34
2019-03-25T20:39:22.006Z,1015.36
2019-03-25T20:40:21.896Z,1015.36
2019-03-25T20:41:21.792Z,1015.44
2019-03-25T20:42:21.684Z,1015.42
2019-03-25T20:43:21.585Z,1015.44
2019-03-25T20:44:21.536Z,1015.48
2019-03-25T20:45:21.421Z,1015.46
2019-03-25T20:46:21.267Z,1015.55
2019-03-25T20:47:21.157Z,1015.53
2019-03-25T20:48:21.063Z,1015.55
2019-03-25T20:49:20.957Z,1015.60
2019-03-25T20:50:20.833Z,1015.54
2019-03-25T20:51:20.722Z,1015.54
2019-03-25T20:52:20.692Z,1015.59
2019-03-25T20:53:20.516Z,1015.59
2019-03-25T20:54:20.405Z,1015.58
2019-03-25T20:55:20.310Z,1015.63
2019-03-25T20:56:20.193Z,1015.65
2019-03-25T20:57:20.084Z,1015.67
2019-03-25T20:58:20.003Z,1015.67
2019-03-25T20:59:19.874Z,1015.72
2019-03-25T21:00:19.783Z,1015.68
2019-03-25T21:01:19.658Z,1015.73
2019-03-25T21:02:19.561Z,1015.74
2019-03-25T21:03:19.491Z,1015.77
2019-03-25T21:04:19.399Z,1015.78
2019-03-25T21:05:19.275Z,1015.79
2019-03-25T21:06:19.126Z,1015.87
2019-03-25T21:07:19.033Z,1015.84
2019-03-25T21:08:19.057Z,1015.85
2019-03-25T21:09:18.806Z,1015.84
2019-03-25T21:10:18.748Z,1015.87
2019-03-25T21:11:18.635Z,1015.85
2019-03-25T21:12:18.514Z,1015.87
2019-03-25T21:13:18.379Z,1015.85
2019-03-25T21:14:18.273Z,1015.94
2019-03-25T21:15:18.205Z,1015.91
2019-03-25T21:16:18.167Z,1015.96
2019-03-25T21:17:17.954Z,1015.98
2019-03-25T21:18:17.901Z,1015.99
2019-03-25T21:19:17.804Z,1016.07
2019-03-25T21:20:17.634Z,1016.06
2019-03-25T21:21:17.530Z,1016.13
2019-03-25T21:22:17.460Z,1016.19
2019-03-25T21:23:17.379Z,1016.22
2019-03-25T21:24:17.209Z,1016.25
2019-03-25T21:25:17.108Z,1016.29
2019-03-25T21:26:16.991Z,1016.27
2019-03-25T21:27:16.931Z,1016.30
2019-03-25T21:28:16.813Z,1016.35
2019-03-25T21:29:16.724Z,1016.35
2019-03-25T21:30:16.570Z,1016.34
2019-03-25T21:31:16.549Z,1016.36
2019-03-25T21:32:16.509Z,1016.42
2019-03-25T21:33:16.327Z,1016.42
2019-03-25T21:34:16.178Z,1016.41
2019-03-25T21:35:16.087Z,1016.44
2019-03-25T21:36:15.959Z,1016.54
2019-03-25T21:37:15.824Z,1016.50
2019-03-25T21:38:15.710Z,1016.59
2019-03-25T21:39:15.904Z,1016.57
2019-03-25T21:40:15.499Z,1016.59
2019-03-25T21:41:15.415Z,1016.67
2019-03-25T21:42:15.339Z,1016.64
2019-03-25T21:43:15.176Z,1016.59
2019-03-25T21:44:15.070Z,1016.61
2019-03-25T21:45:15.000Z,1016.62
2019-03-25T21:46:14.945Z,1016.60
2019-03-25T21:47:14.896Z,1016.63
2019-03-25T21:48:14.743Z,1016.62
2019-03-25T21:49:14.535Z,1016.63
2019-03-25T21:50:14.450Z,1016.67
2019-03-25T21:51:14.354Z,1016.62
2019-03-25T21:52:14.232Z,1016.60
2019-03-25T21:53:14.177Z,1016.58
2019-03-25T21:54:14.016Z,1016.57
2019-03-25T21:55:13.922Z,1016.54
2019-03-25T21:56:13.893Z,1016.59
2019-03-25T21:57:13.715Z,1016.56
2019-03-25T21:58:13.639Z,1016.55
2019-03-25T21:59:13.464Z,1016.53
2019-03-25T22:00:13.411Z,1016.56
2019-03-25T22:01:13.383Z,1016.50
2019-03-25T22:02:13.143Z,1016.59
2019-03-25T22:03:13.036Z,1016.56
2019-03-25T22:04:12.929Z,1016.57
2019-03-25T22:05:12.821Z,1016.60
2019-03-25T22:06:12.715Z,1016.57
2019-03-25T22:07:12.607Z,1016.58
2019-03-25T22:08:12.501Z,1016.60
2019-03-25T22:09:12.392Z,1016.59
2019-03-25T22:10:12.287Z,1016.66
2019-03-25T22:11:12.179Z,1016.63
2019-03-25T22:12:12.076Z,1016.69
2019-03-25T22:13:11.968Z,1016.68
2019-03-25T22:14:11.860Z,1016.71
2019-03-25T22:15:11.751Z,1016.69
2019-03-25T22:16:11.645Z,1016.75
2019-03-25T22:17:11.537Z,1016.78
2019-03-25T22:18:11.430Z,1016.80
2019-03-25T22:19:11.373Z,1016.79
2019-03-25T22:20:11.236Z,1016.84
2019-03-25T22:21:11.108Z,1016.87
2019-03-25T22:22:11.005Z,1016.89
2019-03-25T22:23:10.895Z,1016.86
2019-03-25T22:24:10.787Z,1016.90
2019-03-25T22:25:10.679Z,1016.91
2019-03-25T22:26:10.571Z,1016.92
2019-03-25T22:27:10.466Z,1016.95
2019-03-25T22:28:10.359Z,1016.94
2019-03-25T22:29:10.248Z,1016.96
2019-03-25T22:30:10.144Z,1016.97
2019-03-25T22:31:10.038Z,1016.94
2019-03-25T22:32:09.927Z,1016.96
2019-03-25T22:33:09.823Z,1016.97
2019-03-25T22:34:09.715Z,1016.95
2019-03-25T22:35:09.608Z,1016.97
2019-03-25T22:36:09.505Z,1016.95
2019-03-25T22:37:09.394Z,1016.93
2019-03-25T22:38:09.345Z,1016.96
2019-03-25T22:39:09.176Z,1016.96
2019-03-25T22:40:09.074Z,1017.00
2019-03-25T22:41:08.964Z,1017.03
2019-03-25T22:42:08.858Z,1017.06
2019-03-25T22:43:08.751Z,1017.03
2019-03-25T22:44:08.650Z,1017.07
2019-03-25T22:45:08.538Z,1017.05
2019-03-25T22:46:08.428Z,1017.04
2019-03-25T22:47:08.319Z,1017.06
2019-03-25T22:48:08.214Z,1017.11
2019-03-25T22:49:08.107Z,1017.10
2019-03-25T22:50:07.999Z,1017.09
2019-03-25T22:51:07.894Z,1017.06
2019-03-25T22:52:07.783Z,1017.12
2019-03-25T22:53:07.684Z,1017.08
2019-03-25T22:54:07.569Z,1017.10
2019-03-25T22:55:07.463Z,1017.10
2019-03-25T22:56:07.356Z,1017.11
2019-03-25T22:57:07.327Z,1017.10
2019-03-25T22:58:07.141Z,1017.11
2019-03-25T22:59:07.031Z,1017.09
2019-03-25T23:00:06.928Z,1017.10
2019-03-25T23:01:06.821Z,1017.14
2019-03-25T23:02:06.709Z,1017.13
2019-03-25T23:03:06.602Z,1017.11
2019-03-25T23:04:06.495Z,1017.16
2019-03-25T23:05:06.391Z,1017.13
2019-03-25T23:06:06.282Z,1017.19
2019-03-25T23:07:06.173Z,1017.19
2019-03-25T23:08:06.065Z,1017.20
2019-03-25T23:09:05.959Z,1017.24
2019-03-25T23:10:05.850Z,1017.22
2019-03-25T23:11:05.744Z,1017.23
2019-03-25T23:12:05.639Z,1017.26
2019-03-25T23:13:05.529Z,1017.33
2019-03-25T23:14:05.422Z,1017.27
2019-03-25T23:15:05.393Z,1017.29
2019-03-25T23:16:05.255Z,1017.36
2019-03-25T23:17:05.097Z,1017.39
2019-03-25T23:18:04.988Z,1017.41
2019-03-25T23:19:04.881Z,1017.51
2019-03-25T23:20:04.775Z,1017.56
2019-03-25T23:21:04.667Z,1017.58
2019-03-25T23:22:04.559Z,1017.62
2019-03-25T23:23:04.450Z,1017.65
2019-03-25T23:24:04.346Z,1017.65
2019-03-25T23:25:04.237Z,1017.67
2019-03-25T23:26:04.130Z,1017.75
2019-03-25T23:27:04.028Z,1017.76
2019-03-25T23:28:03.922Z,1017.73
2019-03-25T23:29:03.806Z,1017.75
2019-03-25T23:30:03.700Z,1017.76
2019-03-25T23:31:03.591Z,1017.74
2019-03-25T23:32:03.485Z,1017.73
2019-03-25T23:33:03.375Z,1017.73
2019-03-25T23:34:03.288Z,1017.76
2019-03-25T23:35:03.223Z,1017.76
2019-03-25T23:36:03.056Z,1017.78
2019-03-25T23:37:02.946Z,1017.80
2019-03-25T23:38:02.842Z,1017.80
2019-03-25T23:39:02.733Z,1017.76
2019-03-25T23:40:02.625Z,1017.79
2019-03-25T23:41:02.517Z,1017.79
2019-03-25T23:42:02.411Z,1017.80
2019-03-25T23:43:02.303Z,1017.81
2019-03-25T23:44:02.203Z,1017.81
2019-03-25T23:45:02.090Z,1017.85
2019-03-25T23:46:01.980Z,1017.84
2019-03-25T23:47:01.874Z,1017.85
2019-03-25T23:48:01.768Z,1017.87
2019-03-25T23:49:01.662Z,1017.90
2019-03-25T23:50:01.554Z,1017.87
2019-03-25T23:51:01.443Z,1017.88
2019-03-25T23:52:01.340Z,1017.87
2019-03-25T23:53:01.257Z,1017.91
2019-03-25T23:54:01.189Z,1017.87
2019-03-25T23:55:01.018Z,1017.87
2019-03-25T23:56:00.911Z,1017.89
2019-03-25T23:57:00.807Z,1017.92
2019-03-25T23:58:00.697Z,1017.91
2019-03-25T23:59:00.588Z,1017.87
